createdAt,value
2022-11-22T00:00:54.885Z,15.65
2022-11-22T00:02:28.227Z,17.17
2022-11-22T00:04:01.361Z,17.00
2022-11-22T00:05:34.594Z,16.70
2022-11-22T00:07:07.724Z,17.02
2022-11-22T00:08:40.854Z,17.00
2022-11-22T00:10:16.118Z,18.13
2022-11-22T00:11:50.567Z,17.88
2022-11-22T00:13:23.693Z,18.08
2022-11-22T00:14:57.134Z,17.52
2022-11-22T00:16:30.264Z,17.98
2022-11-22T00:18:03.382Z,18.25
2022-11-22T00:19:39.338Z,18.52
2022-11-22T00:21:12.413Z,18.23
2022-11-22T00:22:45.213Z,17.92
2022-11-22T00:24:18.461Z,17.95
2022-11-22T00:25:51.486Z,18.10
2022-11-22T00:27:27.329Z,17.42
2022-11-22T00:29:00.373Z,16.75
2022-11-22T00:30:32.479Z,17.08
2022-11-22T00:32:05.722Z,17.55
2022-11-22T00:33:38.870Z,18.33
2022-11-22T00:35:12.957Z,17.85
2022-11-22T00:36:45.137Z,17.63
2022-11-22T00:38:18.198Z,17.73
2022-11-22T00:39:50.517Z,16.45
2022-11-22T00:41:23.642Z,17.17
2022-11-22T00:42:58.067Z,16.80
2022-11-22T00:44:31.236Z,16.60
2022-11-22T00:46:04.401Z,16.60
2022-11-22T00:47:37.543Z,16.40
2022-11-22T00:49:10.648Z,16.25
2022-11-22T00:50:43.748Z,16.63
2022-11-22T00:52:16.961Z,17.48
2022-11-22T00:53:50.013Z,17.50
2022-11-22T00:55:23.046Z,17.57
2022-11-22T00:56:55.285Z,16.75
2022-11-22T00:58:29.906Z,16.67
2022-11-22T01:00:02.997Z,17.23
2022-11-22T01:01:36.167Z,16.55
2022-11-22T01:03:12.355Z,17.23
2022-11-22T01:04:45.541Z,16.80
2022-11-22T01:06:18.650Z,16.45
2022-11-22T01:07:51.725Z,16.50
2022-11-22T01:09:25.414Z,16.13
2022-11-22T01:10:59.120Z,17.90
2022-11-22T01:12:32.294Z,16.85
2022-11-22T01:14:07.658Z,17.00
2022-11-22T01:15:40.748Z,17.55
2022-11-22T01:17:13.847Z,16.65
2022-11-22T01:18:46.932Z,17.63
2022-11-22T01:20:20.031Z,17.65
2022-11-22T01:21:53.094Z,17.02
2022-11-22T01:23:26.227Z,17.67
2022-11-22T01:24:59.473Z,17.27
2022-11-22T01:26:33.575Z,16.77
2022-11-22T01:28:06.758Z,16.52
2022-11-22T01:29:41.186Z,15.57
2022-11-22T01:31:14.275Z,16.05
2022-11-22T01:32:47.438Z,17.70
2022-11-22T01:34:20.515Z,17.17
2022-11-22T01:35:52.600Z,17.25
2022-11-22T01:37:25.696Z,18.40
2022-11-22T01:38:58.734Z,18.20
2022-11-22T01:40:31.834Z,18.73
2022-11-22T01:42:05.030Z,19.30
2022-11-22T01:43:38.121Z,18.73
2022-11-22T01:45:42.641Z,19.20
2022-11-22T01:47:18.672Z,19.33
2022-11-22T01:48:55.620Z,18.83
2022-11-22T01:50:29.591Z,19.10
2022-11-22T01:52:06.724Z,17.83
2022-11-22T01:53:40.813Z,19.00
2022-11-22T01:55:15.326Z,18.40
2022-11-22T01:56:54.099Z,19.52
2022-11-22T01:58:28.485Z,19.02
2022-11-22T02:00:04.157Z,19.35
2022-11-22T02:01:40.073Z,19.10
2022-11-22T02:03:14.991Z,18.97
2022-11-22T02:04:48.572Z,19.63
2022-11-22T02:06:25.005Z,20.05
2022-11-22T02:08:03.239Z,18.73
2022-11-22T02:09:38.449Z,19.30
2022-11-22T02:11:13.544Z,20.60
2022-11-22T02:12:47.006Z,20.42
2022-11-22T02:14:24.948Z,20.20
2022-11-22T02:15:59.371Z,20.52
2022-11-22T02:17:34.231Z,22.00
2022-11-22T02:19:12.153Z,20.43
2022-11-22T02:20:45.547Z,20.77
2022-11-22T02:22:30.358Z,20.05
2022-11-22T02:24:10.994Z,20.63
2022-11-22T02:25:56.654Z,19.33
2022-11-22T02:27:29.785Z,20.45
2022-11-22T02:29:06.441Z,19.83
2022-11-22T02:30:40.293Z,18.02
2022-11-22T02:32:13.383Z,19.38
2022-11-22T02:33:45.432Z,20.10
2022-11-22T02:35:20.744Z,21.40
2022-11-22T02:36:55.462Z,20.63
2022-11-22T02:38:31.974Z,20.80
2022-11-22T02:40:10.481Z,20.35
2022-11-22T02:41:45.800Z,21.48
2022-11-22T02:43:21.548Z,21.77
2022-11-22T02:44:54.721Z,21.50
2022-11-22T02:46:26.784Z,21.13
2022-11-22T02:48:06.693Z,21.25
2022-11-22T02:49:39.725Z,22.25
2022-11-22T02:51:16.734Z,21.92
2022-11-22T02:52:49.779Z,21.77
2022-11-22T02:54:23.381Z,21.40
2022-11-22T02:55:55.448Z,21.13
2022-11-22T02:57:29.896Z,21.88
2022-11-22T02:59:02.965Z,19.88
2022-11-22T03:00:36.967Z,20.67
2022-11-22T03:02:10.140Z,20.10
2022-11-22T03:03:43.200Z,19.92
2022-11-22T03:05:15.355Z,19.83
2022-11-22T03:06:48.490Z,19.50
2022-11-22T03:08:21.576Z,19.58
2022-11-22T03:09:54.656Z,20.00
2022-11-22T03:11:27.733Z,20.70
2022-11-22T03:13:02.224Z,21.20
2022-11-22T03:14:35.298Z,21.40
2022-11-22T03:16:08.794Z,22.15
2022-11-22T03:17:40.858Z,22.00
2022-11-22T03:19:14.609Z,21.73
2022-11-22T03:20:47.658Z,22.10
2022-11-22T03:22:20.745Z,23.33
2022-11-22T03:23:52.837Z,23.00
2022-11-22T03:25:25.912Z,23.45
2022-11-22T03:26:59.035Z,23.67
2022-11-22T03:28:33.492Z,24.65
2022-11-22T03:30:06.789Z,23.08
2022-11-22T03:31:39.893Z,22.40
2022-11-22T03:33:12.920Z,22.92
2022-11-22T03:34:45.978Z,22.98
2022-11-22T03:36:19.299Z,22.88
2022-11-22T03:37:52.400Z,23.02
2022-11-22T03:39:25.699Z,21.75
2022-11-22T03:40:58.948Z,23.15
2022-11-22T03:42:31.999Z,23.25
2022-11-22T03:44:06.913Z,23.05
2022-11-22T03:45:45.704Z,22.45
2022-11-22T03:47:18.819Z,22.67
2022-11-22T03:48:51.876Z,22.83
2022-11-22T03:50:25.045Z,21.67
2022-11-22T03:51:58.113Z,22.27
2022-11-22T03:53:30.239Z,24.27
2022-11-22T03:55:03.366Z,23.38
2022-11-22T03:56:36.489Z,23.40
2022-11-22T03:58:09.518Z,23.17
2022-11-22T03:59:43.976Z,23.02
2022-11-22T04:01:17.355Z,23.13
2022-11-22T04:02:50.482Z,23.23
2022-11-22T04:04:24.138Z,23.15
2022-11-22T04:05:57.393Z,22.13
2022-11-22T04:07:30.523Z,22.08
2022-11-22T04:09:04.120Z,21.97
2022-11-22T04:10:37.314Z,22.70
2022-11-22T04:12:10.360Z,21.75
2022-11-22T04:14:00.849Z,20.83
2022-11-22T04:15:35.278Z,21.83
2022-11-22T04:17:07.339Z,21.67
2022-11-22T04:18:40.448Z,22.50
2022-11-22T04:20:34.732Z,22.25
2022-11-22T04:22:06.777Z,21.53
2022-11-22T04:23:39.861Z,21.52
2022-11-22T04:25:14.539Z,21.40
2022-11-22T04:26:46.674Z,20.88
2022-11-22T04:28:24.543Z,20.90
2022-11-22T04:30:04.073Z,20.02
2022-11-22T04:31:56.097Z,21.60
2022-11-22T04:33:28.770Z,20.67
2022-11-22T04:35:01.832Z,20.85
2022-11-22T04:36:34.880Z,20.90
2022-11-22T04:38:08.075Z,19.52
2022-11-22T04:39:41.151Z,20.33
2022-11-22T04:41:14.405Z,19.98
2022-11-22T04:43:04.923Z,19.37
2022-11-22T04:44:42.911Z,19.17
2022-11-22T04:46:17.015Z,19.23
2022-11-22T04:47:59.497Z,18.90
2022-11-22T04:49:32.629Z,18.45
2022-11-22T04:51:23.884Z,18.85
2022-11-22T04:52:57.442Z,18.35
2022-11-22T04:54:30.705Z,18.02
2022-11-22T04:56:04.048Z,18.80
2022-11-22T04:57:36.119Z,18.90
2022-11-22T04:59:09.190Z,18.23
2022-11-22T05:00:42.976Z,18.33
2022-11-22T05:02:15.032Z,18.15
2022-11-22T05:03:49.475Z,18.08
2022-11-22T05:05:21.537Z,17.80
2022-11-22T05:06:56.688Z,18.85
2022-11-22T05:08:29.792Z,17.13
2022-11-22T05:10:02.873Z,18.15
2022-11-22T05:11:35.908Z,18.03
2022-11-22T05:13:07.990Z,18.00
2022-11-22T05:14:41.037Z,17.97
2022-11-22T05:16:15.989Z,18.33
2022-11-22T05:17:49.023Z,17.27
2022-11-22T05:19:23.462Z,17.73
2022-11-22T05:20:57.045Z,18.03
2022-11-22T05:22:44.073Z,17.80
2022-11-22T05:24:17.094Z,16.92
2022-11-22T05:25:49.266Z,15.80
2022-11-22T05:27:22.291Z,16.83
2022-11-22T05:28:56.867Z,16.30
2022-11-22T05:30:28.953Z,16.75
2022-11-22T05:32:02.034Z,15.73
2022-11-22T05:33:36.981Z,16.35
2022-11-22T05:35:11.525Z,15.95
2022-11-22T05:36:44.581Z,16.25
2022-11-22T05:38:16.699Z,15.18
2022-11-22T05:39:49.739Z,16.27
2022-11-22T05:41:22.815Z,16.42
2022-11-22T05:42:54.873Z,15.53
2022-11-22T05:44:28.042Z,16.53
2022-11-22T05:46:07.396Z,15.70
2022-11-22T05:47:40.487Z,16.47
2022-11-22T05:49:13.668Z,15.60
2022-11-22T05:50:47.116Z,15.73
2022-11-22T05:52:20.162Z,15.47
2022-11-22T05:53:53.271Z,15.10
2022-11-22T05:55:26.298Z,15.57
2022-11-22T05:56:59.353Z,15.63
2022-11-22T05:58:32.419Z,15.07
2022-11-22T06:00:05.990Z,15.03
2022-11-22T06:01:44.957Z,15.57
2022-11-22T06:03:18.124Z,15.03
2022-11-22T06:04:51.219Z,15.40
2022-11-22T06:06:25.691Z,16.07
2022-11-22T06:08:00.075Z,15.80
2022-11-22T06:09:34.227Z,14.93
2022-11-22T06:11:08.800Z,15.60
2022-11-22T06:12:41.929Z,14.97
2022-11-22T06:14:14.989Z,14.77
2022-11-22T06:15:48.038Z,15.43
2022-11-22T06:17:21.072Z,15.03
2022-11-22T06:18:55.273Z,15.57
2022-11-22T06:20:28.310Z,15.63
2022-11-22T06:22:02.727Z,15.53
2022-11-22T06:23:35.983Z,15.67
2022-11-22T06:25:10.547Z,15.13
2022-11-22T06:26:43.577Z,15.17
2022-11-22T06:28:16.642Z,15.03
2022-11-22T06:29:49.736Z,15.33
2022-11-22T06:31:24.934Z,14.53
2022-11-22T06:32:58.758Z,15.00
2022-11-22T06:34:31.881Z,15.30
2022-11-22T06:36:05.842Z,15.27
2022-11-22T06:37:40.431Z,15.40
2022-11-22T06:39:13.804Z,15.17
2022-11-22T06:40:46.876Z,14.80
2022-11-22T06:42:20.086Z,16.07
2022-11-22T06:43:53.379Z,15.40
2022-11-22T06:45:26.668Z,14.73
2022-11-22T06:46:59.705Z,15.77
2022-11-22T06:48:34.166Z,14.97
2022-11-22T06:50:08.029Z,15.33
2022-11-22T06:51:41.279Z,15.93
2022-11-22T06:53:39.355Z,16.17
2022-11-22T06:55:34.717Z,14.87
2022-11-22T06:57:02.277Z,15.50
2022-11-22T06:58:35.783Z,14.93
2022-11-22T07:00:10.435Z,15.90
2022-11-22T07:01:43.640Z,15.37
2022-11-22T07:03:16.745Z,15.37
2022-11-22T07:05:17.145Z,15.37
2022-11-22T07:06:44.263Z,14.97
2022-11-22T07:08:18.730Z,15.53
2022-11-22T07:09:56.285Z,14.60
2022-11-22T07:11:31.680Z,15.63
2022-11-22T07:13:04.764Z,14.63
2022-11-22T07:14:37.951Z,14.80
2022-11-22T07:16:13.069Z,14.67
2022-11-22T07:17:46.297Z,14.83
2022-11-22T07:19:19.387Z,15.10
2022-11-22T07:20:52.879Z,14.40
2022-11-22T07:22:26.037Z,15.07
2022-11-22T07:24:00.699Z,15.00
2022-11-22T07:25:33.761Z,15.40
2022-11-22T07:27:06.815Z,15.17
2022-11-22T07:28:39.152Z,14.20
2022-11-22T07:30:13.050Z,15.90
2022-11-22T07:31:47.311Z,15.47
2022-11-22T07:33:20.546Z,15.10
2022-11-22T07:34:53.650Z,15.23
2022-11-22T07:36:29.393Z,14.63
2022-11-22T07:38:02.577Z,13.97
2022-11-22T07:39:37.006Z,14.73
2022-11-22T07:41:10.199Z,14.47
2022-11-22T07:42:43.293Z,14.27
2022-11-22T07:44:17.340Z,14.53
2022-11-22T07:45:50.634Z,14.00
2022-11-22T07:47:23.734Z,13.73
2022-11-22T07:48:57.434Z,12.77
2022-11-22T07:50:31.446Z,13.83
2022-11-22T07:52:04.587Z,13.93
2022-11-22T07:53:37.669Z,14.80
2022-11-22T07:55:14.316Z,14.43
2022-11-22T07:56:47.565Z,14.87
2022-11-22T07:58:20.614Z,14.33
2022-11-22T07:59:53.799Z,14.23
2022-11-22T08:01:26.909Z,14.20
2022-11-22T08:03:00.838Z,14.57
2022-11-22T08:04:33.901Z,12.60
2022-11-22T08:06:08.767Z,14.03
2022-11-22T08:07:47.214Z,12.97
2022-11-22T08:09:20.515Z,12.77
2022-11-22T08:10:55.021Z,13.43
2022-11-22T08:12:28.284Z,12.90
2022-11-22T08:14:01.367Z,13.80
2022-11-22T08:15:34.437Z,12.93
2022-11-22T08:17:07.483Z,13.70
2022-11-22T08:18:41.621Z,13.60
2022-11-22T08:20:14.938Z,13.47
2022-11-22T08:21:52.722Z,13.30
2022-11-22T08:23:30.072Z,12.57
2022-11-22T08:25:03.231Z,13.27
2022-11-22T08:26:37.922Z,12.80
2022-11-22T08:28:11.056Z,12.63
2022-11-22T08:29:44.111Z,13.10
2022-11-22T08:31:19.595Z,13.33
2022-11-22T08:32:55.618Z,13.50
2022-11-22T08:34:28.766Z,13.70
2022-11-22T08:36:01.874Z,13.70
2022-11-22T08:37:35.884Z,13.30
2022-11-22T08:39:09.102Z,13.50
2022-11-22T08:40:43.351Z,12.97
2022-11-22T08:42:17.747Z,13.23
2022-11-22T08:43:51.387Z,13.00
2022-11-22T08:45:24.551Z,12.90
2022-11-22T08:46:57.690Z,13.50
2022-11-22T08:48:31.950Z,13.13
2022-11-22T08:50:05.852Z,12.53
2022-11-22T08:51:44.767Z,12.10
2022-11-22T08:53:17.899Z,12.83
2022-11-22T08:54:50.984Z,13.23
2022-11-22T08:56:24.052Z,13.60
2022-11-22T08:58:01.168Z,12.63
2022-11-22T08:59:34.691Z,12.93
2022-11-22T09:01:09.139Z,12.90
2022-11-22T09:02:42.467Z,12.40
2022-11-22T09:04:15.575Z,12.57
2022-11-22T09:09:38.386Z,12.93
2022-11-22T09:11:13.591Z,12.40
2022-11-22T09:12:46.851Z,13.23
2022-11-22T09:14:21.307Z,12.87
2022-11-22T09:15:54.860Z,13.10
2022-11-22T09:17:27.925Z,12.27
2022-11-22T09:19:01.028Z,13.90
2022-11-22T09:20:34.125Z,12.47
2022-11-22T09:22:07.228Z,12.80
2022-11-22T09:23:39.299Z,12.53
2022-11-22T09:25:12.464Z,13.10
2022-11-22T09:26:45.568Z,12.30
2022-11-22T09:28:18.652Z,13.43
2022-11-22T09:29:53.276Z,12.20
2022-11-22T09:31:26.627Z,12.97
2022-11-22T09:32:59.807Z,12.97
2022-11-22T09:34:32.907Z,11.77
2022-11-22T09:36:08.711Z,12.50
2022-11-22T09:37:41.962Z,12.30
2022-11-22T09:39:15.112Z,11.77
2022-11-22T09:40:48.258Z,12.13
2022-11-22T09:42:41.667Z,12.10
2022-11-22T09:44:20.987Z,12.60
2022-11-22T09:46:09.050Z,10.90
2022-11-22T09:47:51.494Z,11.13
2022-11-22T09:49:30.617Z,12.03
2022-11-22T09:51:10.743Z,11.30
2022-11-22T09:52:49.881Z,10.37
2022-11-22T09:54:28.174Z,11.03
2022-11-22T09:56:05.931Z,11.00
2022-11-22T09:57:43.706Z,10.83
2022-11-22T09:59:22.366Z,11.20
2022-11-22T10:01:03.487Z,11.40
2022-11-22T10:02:59.257Z,12.03
2022-11-22T10:04:38.267Z,11.40
2022-11-22T10:06:18.552Z,11.87
2022-11-22T10:07:58.972Z,11.17
2022-11-22T10:09:38.993Z,11.37
2022-11-22T10:11:19.053Z,10.67
2022-11-22T10:12:58.254Z,10.90
2022-11-22T10:14:41.211Z,11.20
2022-11-22T10:16:21.803Z,11.30
2022-11-22T10:17:57.824Z,10.83
2022-11-22T10:19:38.822Z,11.50
2022-11-22T10:21:14.233Z,10.77
2022-11-22T10:22:48.666Z,11.07
2022-11-22T10:24:21.770Z,10.73
2022-11-22T10:25:59.245Z,11.67
2022-11-22T10:27:34.135Z,11.30
2022-11-22T10:29:20.946Z,11.47
2022-11-22T10:31:04.198Z,11.17
2022-11-22T10:32:44.028Z,10.60
2022-11-22T10:34:28.868Z,9.53
2022-11-22T10:36:18.919Z,10.33
2022-11-22T10:38:03.480Z,11.13
2022-11-22T10:39:56.617Z,10.73
2022-11-22T10:41:40.713Z,10.97
2022-11-22T10:43:29.847Z,10.90
2022-11-22T10:45:11.819Z,10.80
2022-11-22T10:46:56.914Z,10.10
2022-11-22T10:48:39.978Z,11.13
2022-11-22T10:50:21.146Z,10.93
2022-11-22T10:52:01.697Z,11.50
2022-11-22T10:53:46.695Z,10.70
2022-11-22T10:55:32.546Z,9.97
2022-11-22T10:57:15.850Z,10.47
2022-11-22T10:59:03.575Z,10.90
2022-11-22T11:00:40.874Z,10.33
2022-11-22T11:02:35.543Z,10.73
2022-11-22T11:04:15.062Z,10.67
2022-11-22T11:06:15.631Z,10.23
2022-11-22T11:07:48.648Z,10.47
2022-11-22T11:11:23.972Z,10.77
2022-11-22T11:12:59.720Z,10.67
2022-11-22T11:14:37.979Z,10.20
2022-11-22T11:16:17.375Z,10.60
2022-11-22T11:17:55.635Z,10.93
2022-11-22T11:19:34.008Z,10.40
2022-11-22T11:21:07.724Z,10.80
2022-11-22T11:24:35.204Z,10.63
2022-11-22T11:26:24.198Z,11.40
2022-11-22T11:28:02.015Z,11.33
2022-11-22T11:29:40.774Z,11.33
2022-11-22T11:31:15.757Z,11.33
2022-11-22T11:32:53.597Z,11.40
2022-11-22T11:34:30.586Z,11.63
2022-11-22T11:36:07.076Z,11.73
2022-11-22T11:37:40.423Z,12.57
2022-11-22T11:39:21.362Z,12.50
2022-11-22T11:40:54.383Z,13.20
2022-11-22T11:42:30.464Z,13.00
2022-11-22T11:44:05.242Z,12.83
2022-11-22T11:45:38.321Z,13.23
2022-11-22T11:47:19.947Z,15.03
2022-11-22T11:48:54.089Z,13.77
2022-11-22T11:50:30.182Z,12.70
2022-11-22T11:52:06.465Z,14.33
2022-11-22T11:53:41.212Z,14.97
2022-11-22T11:55:17.667Z,14.10
2022-11-22T11:56:53.399Z,15.23
2022-11-22T11:58:26.612Z,14.90
2022-11-22T12:00:01.889Z,14.80
2022-11-22T12:01:38.995Z,14.50
2022-11-22T12:03:15.909Z,15.07
2022-11-22T12:04:52.566Z,15.23
2022-11-22T12:06:31.592Z,15.17
2022-11-22T12:08:24.907Z,15.53
2022-11-22T12:09:58.069Z,15.23
2022-11-22T12:11:39.011Z,15.70
2022-11-22T12:13:20.931Z,15.70
2022-11-22T12:15:11.379Z,15.90
2022-11-22T12:16:49.080Z,15.93
2022-11-22T12:18:39.939Z,16.37
2022-11-22T12:20:19.322Z,14.70
2022-11-22T12:22:02.037Z,14.50
2022-11-22T12:23:42.738Z,15.20
2022-11-22T12:25:32.556Z,14.90
2022-11-22T12:27:06.757Z,14.37
2022-11-22T12:28:40.310Z,15.23
2022-11-22T12:30:14.609Z,15.60
2022-11-22T12:31:53.457Z,14.70
2022-11-22T12:33:30.996Z,16.13
2022-11-22T12:35:11.367Z,15.10
2022-11-22T12:36:49.844Z,14.47
2022-11-22T12:38:29.204Z,15.10
2022-11-22T12:40:06.940Z,15.50
2022-11-22T12:41:42.381Z,16.53
2022-11-22T12:43:21.237Z,15.73
2022-11-22T12:44:58.648Z,15.07
2022-11-22T12:46:39.647Z,15.27
2022-11-22T12:48:21.860Z,15.73
2022-11-22T12:49:58.603Z,15.93
2022-11-22T12:51:41.240Z,16.57
2022-11-22T12:53:16.901Z,16.03
2022-11-22T12:55:00.459Z,15.70
2022-11-22T12:56:44.340Z,16.13
2022-11-22T12:58:22.789Z,16.90
2022-11-22T13:00:03.761Z,17.17
2022-11-22T13:01:45.096Z,17.20
2022-11-22T13:03:23.560Z,17.03
2022-11-22T13:05:01.602Z,16.53
2022-11-22T13:06:42.992Z,17.27
2022-11-22T13:08:19.646Z,15.57
2022-11-22T13:09:59.634Z,16.47
2022-11-22T13:11:36.710Z,16.17
2022-11-22T13:13:18.477Z,15.83
2022-11-22T13:14:55.137Z,16.47
2022-11-22T13:16:28.233Z,16.23
2022-11-22T13:18:01.942Z,15.80
2022-11-22T13:19:46.379Z,16.63
2022-11-22T13:21:28.079Z,15.47
2022-11-22T13:23:19.512Z,15.23
2022-11-22T13:25:10.375Z,15.33
2022-11-22T13:26:48.808Z,14.80
2022-11-22T13:28:26.038Z,15.00
2022-11-22T13:30:02.017Z,15.27
2022-11-22T13:31:40.791Z,14.80
2022-11-22T13:33:26.792Z,14.90
2022-11-22T13:35:08.137Z,13.90
2022-11-22T13:36:41.496Z,14.30
2022-11-22T13:38:17.682Z,14.00
2022-11-22T13:39:51.394Z,14.60
2022-11-22T13:41:29.823Z,14.97
2022-11-22T13:43:39.356Z,14.00
2022-11-22T13:45:22.696Z,14.83
2022-11-22T13:46:58.276Z,14.57
2022-11-22T13:49:13.296Z,14.63
2022-11-22T13:51:04.410Z,14.00
2022-11-22T13:52:55.469Z,13.50
2022-11-22T13:55:03.868Z,14.47
2022-11-22T13:57:00.673Z,14.73
2022-11-22T13:58:52.804Z,15.03
2022-11-22T14:00:43.772Z,15.63
2022-11-22T14:02:24.198Z,15.47
2022-11-22T14:04:21.427Z,15.70
2022-11-22T14:05:57.922Z,15.10
2022-11-22T14:07:35.554Z,15.53
2022-11-22T14:09:37.852Z,14.63
2022-11-22T14:11:39.191Z,15.23
2022-11-22T14:13:33.039Z,15.70
2022-11-22T14:15:29.719Z,14.67
2022-11-22T14:17:15.576Z,15.30
2022-11-22T14:18:57.136Z,15.73
2022-11-22T14:20:43.179Z,16.77
2022-11-22T14:22:24.825Z,16.63
2022-11-22T14:24:04.836Z,16.13
2022-11-22T14:25:56.248Z,16.00
2022-11-22T14:27:39.041Z,16.53
2022-11-22T14:29:53.543Z,17.17
2022-11-22T14:31:30.464Z,16.33
2022-11-22T14:33:05.278Z,17.17
2022-11-22T14:35:16.956Z,17.03
2022-11-22T14:37:23.534Z,17.77
2022-11-22T14:38:56.666Z,16.80
2022-11-22T14:40:40.740Z,17.70
2022-11-22T14:42:48.187Z,17.23
2022-11-22T14:44:25.984Z,16.63
2022-11-22T14:46:02.708Z,16.83
2022-11-22T14:47:36.703Z,16.47
2022-11-22T14:49:16.287Z,17.47
2022-11-22T14:50:53.665Z,17.20
2022-11-22T14:52:31.581Z,17.40
2022-11-22T14:54:13.019Z,17.20
2022-11-22T14:55:47.741Z,17.97
2022-11-22T14:57:23.412Z,18.87
2022-11-22T14:59:10.908Z,18.73
2022-11-22T15:01:11.423Z,20.00
2022-11-22T15:03:15.709Z,19.63
2022-11-22T15:09:12.683Z,21.70
2022-11-22T15:09:12.786Z,20.83
2022-11-22T15:09:16.598Z,19.87
2022-11-22T15:11:16.693Z,20.63
2022-11-22T15:13:20.467Z,20.77
2022-11-22T15:58:33.667Z,23.77
2022-11-22T16:00:11.787Z,24.40
2022-11-22T16:01:46.269Z,24.13
2022-11-22T16:03:25.400Z,24.57
2022-11-22T16:06:09.192Z,24.27
2022-11-22T16:06:57.123Z,24.83
2022-11-22T16:08:32.862Z,25.17
2022-11-22T16:10:15.837Z,24.70
2022-11-22T16:11:55.066Z,24.43
2022-11-22T16:13:29.704Z,25.13
2022-11-22T16:15:28.796Z,25.40
2022-11-22T16:17:34.399Z,23.30
2022-11-22T16:19:22.880Z,23.80
2022-11-22T16:21:04.986Z,23.37
2022-11-22T16:22:38.276Z,23.30
2022-11-22T16:24:18.604Z,25.33
2022-11-22T16:25:55.834Z,24.13
2022-11-22T16:27:28.897Z,23.90
2022-11-22T16:29:18.062Z,25.97
2022-11-22T16:30:51.465Z,23.80
2022-11-22T16:32:24.635Z,24.67
2022-11-22T16:33:58.283Z,23.47
2022-11-22T16:35:31.317Z,25.30
2022-11-22T16:37:27.287Z,24.53
2022-11-22T16:39:00.320Z,24.97
2022-11-22T16:40:33.860Z,25.60
2022-11-22T16:42:07.761Z,26.03
2022-11-22T16:43:41.121Z,24.57
2022-11-22T16:45:17.415Z,25.57
2022-11-22T16:46:50.463Z,26.53
2022-11-22T16:48:33.498Z,24.37
2022-11-22T16:50:07.587Z,24.40
2022-11-22T16:51:44.558Z,23.93
2022-11-22T16:53:19.022Z,24.67
2022-11-22T16:54:52.086Z,24.40
2022-11-22T16:56:27.500Z,24.20
2022-11-22T16:58:00.523Z,24.63
2022-11-22T16:59:33.794Z,24.30
2022-11-22T17:01:07.442Z,23.73
2022-11-22T17:02:41.769Z,24.50
2022-11-22T17:04:22.793Z,23.60
2022-11-22T17:05:55.843Z,24.23
2022-11-22T17:07:29.420Z,24.30
2022-11-22T17:09:05.623Z,24.80
2022-11-22T17:10:40.524Z,25.67
2022-11-22T17:12:17.705Z,22.37
2022-11-22T17:13:50.843Z,23.97
2022-11-22T17:15:25.728Z,24.10
2022-11-22T17:16:59.010Z,24.63
2022-11-22T17:18:32.104Z,23.20
2022-11-22T17:20:05.846Z,24.03
2022-11-22T17:21:39.574Z,23.93
2022-11-22T17:23:20.914Z,23.83
2022-11-22T17:24:55.366Z,22.70
2022-11-22T17:26:29.004Z,24.07
2022-11-22T17:28:02.232Z,22.33
2022-11-22T17:29:49.772Z,22.53
2022-11-22T17:31:25.077Z,22.73
2022-11-22T17:32:58.113Z,22.10
2022-11-22T17:34:31.655Z,21.53
2022-11-22T17:36:05.380Z,21.37
2022-11-22T17:37:38.420Z,21.67
2022-11-22T17:39:13.733Z,21.13
2022-11-22T17:40:50.045Z,22.00
2022-11-22T17:42:24.054Z,21.80
2022-11-22T17:43:57.265Z,21.60
2022-11-22T17:45:30.639Z,22.40
2022-11-22T17:47:03.926Z,21.70
2022-11-22T17:48:36.985Z,22.10
2022-11-22T17:50:10.953Z,22.30
2022-11-22T17:51:44.359Z,22.77
2022-11-22T17:53:18.847Z,21.73
2022-11-22T17:54:51.934Z,22.23
2022-11-22T17:56:27.107Z,23.43
2022-11-22T17:58:01.254Z,21.97
2022-11-22T17:59:34.576Z,20.70
2022-11-22T18:01:09.734Z,21.63
2022-11-22T18:02:42.873Z,20.70
2022-11-22T18:04:17.429Z,21.27
2022-11-22T18:05:50.463Z,20.30
2022-11-22T18:07:24.011Z,20.53
2022-11-22T18:08:57.212Z,21.43
2022-11-22T18:10:30.265Z,19.87
2022-11-22T18:12:04.915Z,19.03
2022-11-22T18:13:39.597Z,17.83
2022-11-22T18:15:12.744Z,19.67
2022-11-22T18:16:45.801Z,17.87
2022-11-22T18:18:48.425Z,18.03
2022-11-22T18:20:12.592Z,17.93
2022-11-22T18:21:45.669Z,18.40
2022-11-22T18:23:19.014Z,17.50
2022-11-22T18:24:52.055Z,18.93
2022-11-22T18:26:41.602Z,17.43
2022-11-22T18:28:16.915Z,18.37
2022-11-22T18:29:49.961Z,18.60
2022-11-22T18:31:23.037Z,18.13
2022-11-22T18:32:56.066Z,18.70
2022-11-22T18:34:29.475Z,19.87
2022-11-22T18:36:04.507Z,19.17
2022-11-22T18:37:37.531Z,17.90
2022-11-22T18:39:10.561Z,18.83
2022-11-22T18:40:46.464Z,17.00
2022-11-22T18:42:19.643Z,17.33
2022-11-22T18:43:55.518Z,17.47
2022-11-22T18:45:30.516Z,16.73
2022-11-22T18:47:03.538Z,16.57
2022-11-22T18:48:38.623Z,16.83
2022-11-22T18:50:12.948Z,17.60
2022-11-22T18:51:46.212Z,16.70
2022-11-22T18:53:19.240Z,17.07
2022-11-22T18:54:54.983Z,17.43
2022-11-22T18:56:28.273Z,16.83
2022-11-22T18:58:01.311Z,17.20
2022-11-22T18:59:35.748Z,17.87
2022-11-22T19:01:12.651Z,17.10
2022-11-22T19:02:45.833Z,17.07
2022-11-22T19:04:19.467Z,18.50
2022-11-22T19:05:52.834Z,18.03
2022-11-22T19:07:25.990Z,17.93
2022-11-22T19:08:59.203Z,18.00
2022-11-22T19:10:32.239Z,17.27
2022-11-22T19:12:05.766Z,17.47
2022-11-22T19:13:41.408Z,17.53
2022-11-22T19:15:16.641Z,16.97
2022-11-22T19:16:49.677Z,17.57
2022-11-22T19:18:22.751Z,18.07
2022-11-22T19:19:59.021Z,17.87
2022-11-22T19:21:32.249Z,17.27
2022-11-22T19:23:05.272Z,17.17
2022-11-22T19:24:42.517Z,16.90
2022-11-22T19:26:20.424Z,17.20
2022-11-22T19:27:53.506Z,17.00
2022-11-22T19:29:26.648Z,18.00
2022-11-22T19:31:07.670Z,17.33
2022-11-22T19:32:40.783Z,18.27
2022-11-22T19:34:14.487Z,18.27
2022-11-22T19:35:56.976Z,16.83
2022-11-22T19:37:30.046Z,18.27
2022-11-22T19:39:04.393Z,18.60
2022-11-22T19:40:37.509Z,19.60
2022-11-22T19:42:10.571Z,20.27
2022-11-22T19:43:43.860Z,20.27
2022-11-22T19:45:17.013Z,21.77
2022-11-22T19:46:51.495Z,21.03
2022-11-22T19:48:24.550Z,21.43
2022-11-22T19:49:57.555Z,20.50
2022-11-22T19:51:31.947Z,21.73
2022-11-22T19:53:05.239Z,22.33
2022-11-22T19:54:38.531Z,23.33
2022-11-22T19:56:14.330Z,22.50
2022-11-22T19:57:47.384Z,22.17
2022-11-22T19:59:20.537Z,22.80
2022-11-22T20:00:53.604Z,22.30
2022-11-22T20:02:28.296Z,21.43
2022-11-22T20:04:03.373Z,22.30
2022-11-22T20:05:36.496Z,21.93
2022-11-22T20:07:09.598Z,21.90
2022-11-22T20:08:43.104Z,24.73
2022-11-22T20:10:16.784Z,23.47
2022-11-22T20:11:49.881Z,25.30
2022-11-22T20:13:22.988Z,24.10
2022-11-22T20:14:56.021Z,24.50
2022-11-22T20:16:31.156Z,25.23
2022-11-22T20:18:05.936Z,24.70
2022-11-22T20:19:39.034Z,24.37
2022-11-22T20:21:12.700Z,23.60
2022-11-22T20:22:46.292Z,24.37
2022-11-22T20:24:19.355Z,24.13
2022-11-22T20:25:52.400Z,25.10
2022-11-22T20:27:25.487Z,25.00
2022-11-22T20:29:00.250Z,25.50
2022-11-22T20:30:33.506Z,24.53
2022-11-22T20:32:06.910Z,24.97
2022-11-22T20:33:43.022Z,25.27
2022-11-22T20:35:16.421Z,23.60
2022-11-22T20:36:49.490Z,25.73
2022-11-22T20:38:26.627Z,24.37
2022-11-22T20:39:59.673Z,23.43
2022-11-22T20:41:32.727Z,24.43
2022-11-22T20:43:05.752Z,25.13
2022-11-22T20:44:39.051Z,25.43
2022-11-22T20:46:13.956Z,26.07
2022-11-22T20:47:47.013Z,24.50
2022-11-22T20:49:24.965Z,25.10
2022-11-22T20:50:58.090Z,24.70
2022-11-22T20:52:31.326Z,24.37
2022-11-22T20:54:04.488Z,25.40
2022-11-22T20:55:37.513Z,24.43
2022-11-22T20:57:10.536Z,25.97
2022-11-22T20:58:45.092Z,25.77
2022-11-22T21:00:18.696Z,25.00
2022-11-22T21:01:52.701Z,24.85
2022-11-22T21:03:26.326Z,26.73
2022-11-22T21:05:00.737Z,26.13
2022-11-22T21:06:36.116Z,25.97
2022-11-22T21:08:09.154Z,26.03
2022-11-22T21:09:42.211Z,26.17
2022-11-22T21:11:17.560Z,26.53
2022-11-22T21:12:50.874Z,26.63
2022-11-22T21:14:23.918Z,26.50
2022-11-22T21:16:02.044Z,25.87
2022-11-22T21:17:45.985Z,26.87
2022-11-22T21:19:28.158Z,26.67
2022-11-22T21:21:07.862Z,26.47
2022-11-22T21:22:41.511Z,28.00
2022-11-22T21:24:14.710Z,26.80
2022-11-22T21:25:50.361Z,25.93
2022-11-22T21:27:23.699Z,25.97
2022-11-22T21:28:57.286Z,25.83
2022-11-22T21:30:30.321Z,25.87
2022-11-22T21:32:03.425Z,27.70
2022-11-22T21:33:37.615Z,25.63
2022-11-22T21:35:11.139Z,26.80
2022-11-22T21:36:45.533Z,25.30